Time;durP1;ratioP1;P1;durP2;ratioP2;P2;SDS_P1;SDS_P2;PMS_P1;PMS_P2;Temp;Humidity;BMP_temperature;BMP_pressure;BME280_temperature;BME280_humidity;BME280_pressure;Samples;Min_cycle;Max_cycle;Signal;HPM_P1;HPM_P2
2021/01/14 00:00:07;;;;;;;;;;;;;;;8.20;52.44;100633.44;4757773;30;19937;-75
2021/01/14 00:02:34;;;;;;;;;;;;;;;8.22;52.41;100643.97;4763073;30;19930;-76
2021/01/14 00:05:01;;;;;;;;;;;;;;;8.18;52.62;100651.06;4759822;30;20002;-75
2021/01/14 00:07:27;;;;;;;;;;;;;;;8.20;52.76;100651.03;4769003;30;19934;-75
2021/01/14 00:09:54;;;;;;;;;;;;;;;8.18;52.84;100658.09;4760479;30;19934;-75
2021/01/14 00:12:21;;;;;;;;;;;;;;;8.15;52.97;100669.56;4755867;30;19933;-75
2021/01/14 00:14:48;;;;;;;;;;;;;;;8.14;52.86;100679.25;4764763;30;20029;-75
2021/01/14 00:17:15;;;;;;;;;;;;;;;8.12;52.75;100667.84;4765647;30;20312;-75
2021/01/14 00:19:42;;;;;;;;;;;;;;;8.10;52.54;100677.56;4763070;30;19933;-75
2021/01/14 00:22:09;;;;;;;;;;;;;;;8.10;52.46;100681.94;4758175;30;19930;-75
2021/01/14 00:24:35;;;;;;;;;;;;;;;8.08;52.74;100681.97;4744857;30;20298;-75
2021/01/14 00:27:02;;;;;;;;;;;;;;;8.08;53.09;100681.97;4758887;30;19934;-75
2021/01/14 00:29:29;;;;;;;;;;;;;;;8.09;52.69;100694.25;4767176;30;19956;-75
2021/01/14 00:31:57;;;;;;;;;;;;;;;8.08;52.61;100686.41;4762888;30;19933;-75
2021/01/14 00:34:24;;;;;;;;;;;;;;;8.05;52.82;100692.59;4767126;30;19983;-75
2021/01/14 00:39:36;;;;;;;;;;;;;;;8.04;52.57;100697.88;4761583;30;19933;-75
2021/01/14 00:42:03;;;;;;;;;;;;;;;8.00;53.04;100706.72;4756907;30;19934;-75
2021/01/14 00:44:29;;;;;;;;;;;;;;;7.98;52.56;100697.09;4764420;30;19965;-75
2021/01/14 00:46:57;;;;;;;;;;;;;;;7.96;53.05;100711.19;4761575;30;19930;-75
2021/01/14 00:49:26;;;;;;;;;;;;;;;7.94;52.65;100719.09;4754745;30;19979;-75
2021/01/14 00:51:53;;;;;;;;;;;;;;;7.91;52.76;100715.66;4753706;30;19991;-75
2021/01/14 00:54:19;;;;;;;;;;;;;;;7.87;52.79;100713.97;4759871;30;20027;-75
2021/01/14 00:56:46;;;;;;;;;;;;;;;7.84;53.41;100714.00;4766570;30;20391;-75
2021/01/14 00:59:13;;;;;;;;;;;;;;;7.81;53.04;100734.25;4761150;30;22061;-75
2021/01/14 01:01:41;;;;;;;;;;;;;;;7.79;53.15;100732.53;4761700;30;19936;-75
2021/01/14 01:04:08;;;;;;;;;;;;;;;7.79;53.67;100732.53;4746385;30;19980;-75
2021/01/14 01:06:37;;;;;;;;;;;;;;;7.77;53.11;100745.75;4759537;30;20323;-75
2021/01/14 01:09:06;;;;;;;;;;;;;;;7.78;53.83;100736.91;4745426;30;19930;-75
2021/01/14 01:11:33;;;;;;;;;;;;;;;7.75;53.15;100742.25;4764246;30;20401;-75
2021/01/14 01:14:00;;;;;;;;;;;;;;;7.79;53.47;100745.72;4767417;30;20395;-75
2021/01/14 01:16:27;;;;;;;;;;;;;;;7.81;53.38;100750.06;4761420;30;19995;-75
2021/01/14 01:18:54;;;;;;;;;;;;;;;7.81;53.44;100755.31;4761464;30;19977;-75
2021/01/14 01:21:20;;;;;;;;;;;;;;;7.86;52.89;100764.91;4756661;30;19946;-76
2021/01/14 01:23:48;;;;;;;;;;;;;;;7.87;53.21;100764.88;4761544;30;20427;-76
2021/01/14 01:26:16;;;;;;;;;;;;;;;7.92;53.18;100772.72;4765088;30;19941;-75
2021/01/14 01:28:43;;;;;;;;;;;;;;;8.02;52.88;100774.28;4765046;30;20017;-75
2021/01/14 01:31:10;;;;;;;;;;;;;;;8.16;52.80;100786.41;4763574;30;20335;-75
2021/01/14 01:33:38;;;;;;;;;;;;;;;8.19;52.77;100795.09;4762361;30;20020;-75
2021/01/14 01:36:06;;;;;;;;;;;;;;;8.23;52.52;100796.78;4744233;30;20376;-75
2021/01/14 01:38:32;;;;;;;;;;;;;;;8.34;51.79;100795.72;4745583;30;19937;-75
2021/01/14 01:41:01;;;;;;;;;;;;;;;8.42;50.13;100805.25;4744183;30;19934;-75
2021/01/14 01:43:28;;;;;;;;;;;;;;;8.51;49.36;100813.91;4764571;30;19965;-76
2021/01/14 01:45:55;;;;;;;;;;;;;;;8.56;48.18;100814.72;4755648;30;19934;-75
2021/01/14 01:48:23;;;;;;;;;;;;;;;8.63;46.79;100811.09;4754252;30;19941;-75
2021/01/14 01:50:50;;;;;;;;;;;;;;;8.64;46.44;100826.88;4756324;30;20384;-75
2021/01/14 01:53:17;;;;;;;;;;;;;;;8.74;46.01;100821.44;4756017;30;19934;-75
2021/01/14 01:55:44;;;;;;;;;;;;;;;8.74;45.05;100835.47;4762492;30;20570;-75
2021/01/14 01:58:13;;;;;;;;;;;;;;;8.74;44.97;100835.47;4763640;30;20407;-75
2021/01/14 02:00:42;;;;;;;;;;;;;;;8.82;44.34;100837.97;4738142;30;19934;-75
2021/01/14 02:03:11;;;;;;;;;;;;;;;8.72;44.82;100841.66;4755789;30;19933;-75
2021/01/14 02:05:38;;;;;;;;;;;;;;;8.59;45.31;100847.19;4752400;30;19933;-76
2021/01/14 02:08:07;;;;;;;;;;;;;;;8.51;45.68;100861.38;4761448;30;19945;-75
2021/01/14 02:10:35;;;;;;;;;;;;;;;8.43;47.04;100867.63;4746575;30;20000;-75
2021/01/14 02:13:06;;;;;;;;;;;;;;;8.41;47.10;100864.13;4746822;30;19938;-75
2021/01/14 02:15:35;;;;;;;;;;;;;;;8.38;47.32;100871.22;4748348;30;19941;-75
2021/01/14 02:18:02;;;;;;;;;;;;;;;8.34;47.99;100874.81;4746937;30;20431;-75
2021/01/14 02:20:30;;;;;;;;;;;;;;;8.33;48.01;100875.72;4738344;30;20344;-75
2021/01/14 02:22:59;;;;;;;;;;;;;;;8.31;48.59;100886.28;4750211;30;19989;-75
2021/01/14 02:25:28;;;;;;;;;;;;;;;8.29;48.81;100882.81;4750958;30;19952;-75
2021/01/14 02:27:57;;;;;;;;;;;;;;;8.26;48.74;100894.25;4763786;30;19934;-75
2021/01/14 02:30:24;;;;;;;;;;;;;;;8.26;48.90;100896.91;4759021;30;19944;-75
2021/01/14 02:32:51;;;;;;;;;;;;;;;8.24;49.26;100903.09;4759508;30;19930;-75
2021/01/14 02:35:17;;;;;;;;;;;;;;;8.21;49.85;100898.72;4763424;30;19933;-75
2021/01/14 02:37:44;;;;;;;;;;;;;;;8.18;49.52;100904.06;4760903;30;19942;-75
2021/01/14 02:40:11;;;;;;;;;;;;;;;8.14;50.11;100912.88;4754975;30;19937;-75
2021/01/14 02:42:39;;;;;;;;;;;;;;;8.12;50.15;100920.81;4758632;30;20477;-75
2021/01/14 02:45:08;;;;;;;;;;;;;;;8.11;50.00;100926.13;4757217;30;19930;-75
2021/01/14 02:47:36;;;;;;;;;;;;;;;8.05;50.59;100937.63;4753366;30;20626;-75
2021/01/14 02:50:04;;;;;;;;;;;;;;;8.01;50.06;100933.28;4754406;30;20312;-75
2021/01/14 02:52:31;;;;;;;;;;;;;;;7.98;50.62;100934.19;4762551;30;19934;-75
2021/01/14 02:54:58;;;;;;;;;;;;;;;7.96;50.30;100938.59;4759501;30;19929;-75
2021/01/14 02:57:25;;;;;;;;;;;;;;;7.94;50.48;100942.16;4760925;30;19934;-75
2021/01/14 02:59:53;;;;;;;;;;;;;;;7.95;51.00;100946.53;4747246;30;19937;-75
2021/01/14 03:02:21;;;;;;;;;;;;;;;7.92;50.99;100952.72;4760654;30;19937;-75
2021/01/14 03:04:47;;;;;;;;;;;;;;;7.94;51.12;100945.66;4764375;30;19934;-76
2021/01/14 03:07:15;;;;;;;;;;;;;;;7.94;51.19;100947.41;4761603;30;19930;-75
2021/01/14 03:09:42;;;;;;;;;;;;;;;7.94;50.95;100957.97;4758408;30;20020;-74
2021/01/14 03:12:09;;;;;;;;;;;;;;;7.94;51.45;100956.19;4759272;30;20413;-75
2021/01/14 03:14:36;;;;;;;;;;;;;;;7.94;50.92;100958.81;4749104;30;19996;-75
2021/01/14 03:17:02;;;;;;;;;;;;;;;7.95;51.24;100968.47;4761653;30;19979;-75
2021/01/14 03:19:30;;;;;;;;;;;;;;;7.99;50.53;100985.13;4754644;30;20548;-74
2021/01/14 03:22:00;;;;;;;;;;;;;;;7.99;50.93;100979.84;4763686;30;20396;-75
2021/01/14 03:24:27;;;;;;;;;;;;;;;8.03;51.23;100991.22;4756756;30;19934;-74
2021/01/14 03:26:54;;;;;;;;;;;;;;;8.04;51.39;100988.56;4754268;30;19934;-75
2021/01/14 03:29:21;;;;;;;;;;;;;;;8.10;50.89;100993.75;4756945;30;19945;-75
2021/01/14 03:31:47;;;;;;;;;;;;;;;8.13;51.07;101000.75;4764322;30;19937;-75
2021/01/14 03:34:14;;;;;;;;;;;;;;;8.17;50.47;101010.38;4758920;30;19952;-75
2021/01/14 03:39:24;;;;;;;;;;;;;;;8.23;50.60;101020.81;4764879;30;19938;-75
2021/01/14 03:41:51;;;;;;;;;;;;;;;8.24;51.24;101025.19;4758632;30;19988;-75
2021/01/14 03:44:18;;;;;;;;;;;;;;;8.26;50.90;101025.16;4745925;30;20526;-75
2021/01/14 03:46:46;;;;;;;;;;;;;;;8.28;50.91;101028.66;4753435;30;20414;-76
2021/01/14 03:49:13;;;;;;;;;;;;;;;8.29;50.75;101027.78;4757434;30;19938;-76
2021/01/14 03:51:40;;;;;;;;;;;;;;;8.29;50.88;101039.19;4763196;30;19933;-75
2021/01/14 03:54:07;;;;;;;;;;;;;;;8.33;51.17;101047.06;4763389;30;20036;-75
2021/01/14 03:56:38;;;;;;;;;;;;;;;8.31;50.87;101050.59;4762065;30;20592;-75
2021/01/14 03:59:06;;;;;;;;;;;;;;;8.35;50.94;101048.75;4755197;30;19953;-75
2021/01/14 04:01:33;;;;;;;;;;;;;;;8.32;51.29;101048.81;4756043;30;20044;-75
2021/01/14 04:04:00;;;;;;;;;;;;;;;8.31;51.21;101058.50;4768208;30;19930;-75
2021/01/14 04:06:30;;;;;;;;;;;;;;;8.31;51.38;101053.22;4765953;30;19987;-75
2021/01/14 04:08:58;;;;;;;;;;;;;;;8.33;50.79;101057.63;4758271;30;19930;-75
2021/01/14 04:11:25;;;;;;;;;;;;;;;8.31;50.81;101050.59;4745500;30;20359;-75
2021/01/14 04:13:52;;;;;;;;;;;;;;;8.30;51.08;101053.25;4760075;30;19937;-75
2021/01/14 04:16:19;;;;;;;;;;;;;;;8.30;51.12;101055.88;4757275;30;19937;-75
2021/01/14 04:18:46;;;;;;;;;;;;;;;8.29;51.01;101065.53;4752298;30;19931;-75
2021/01/14 04:21:13;;;;;;;;;;;;;;;8.27;50.95;101053.28;4761903;30;19934;-75
2021/01/14 04:23:40;;;;;;;;;;;;;;;8.26;51.38;101047.13;4768190;30;19941;-75
2021/01/14 04:26:07;;;;;;;;;;;;;;;8.24;51.79;101051.53;4761059;30;19980;-75
2021/01/14 04:28:34;;;;;;;;;;;;;;;8.23;51.15;101060.34;4768196;30;19938;-75
2021/01/14 04:31:01;;;;;;;;;;;;;;;8.21;51.17;101061.25;4764585;30;20009;-75
2021/01/14 04:33:28;;;;;;;;;;;;;;;8.19;51.21;101071.81;4760715;30;19937;-75
2021/01/14 04:35:55;;;;;;;;;;;;;;;8.17;51.71;101073.63;4765176;30;19930;-75
2021/01/14 04:38:23;;;;;;;;;;;;;;;8.13;51.60;101078.03;4761648;30;20032;-75
2021/01/14 04:40:56;;;;;;;;;;;;;;;8.09;51.67;101078.06;4741071;30;19996;-75
2021/01/14 04:43:24;;;;;;;;;;;;;;;8.07;52.00;101085.16;4748602;30;19992;-75
2021/01/14 04:45:54;;;;;;;;;;;;;;;8.03;51.98;101086.06;4760591;30;19933;-75
2021/01/14 04:48:21;;;;;;;;;;;;;;;7.98;52.05;101089.66;4764853;30;19933;-74
2021/01/14 04:50:49;;;;;;;;;;;;;;;7.99;52.30;101103.66;4751688;30;19938;-75
2021/01/14 04:53:18;;;;;;;;;;;;;;;7.95;52.10;101099.34;4760120;30;19929;-75
2021/01/14 04:55:46;;;;;;;;;;;;;;;7.94;52.16;101105.47;4762847;30;19930;-74
2021/01/14 04:58:17;;;;;;;;;;;;;;;7.90;52.04;101107.28;4763438;30;19930;-75
2021/01/14 05:00:48;;;;;;;;;;;;;;;7.86;52.03;101109.97;4765300;30;20471;-75
2021/01/14 05:03:20;;;;;;;;;;;;;;;7.85;52.41;101113.47;4766584;30;19937;-75
2021/01/14 05:05:48;;;;;;;;;;;;;;;7.85;52.15;101124.88;4752079;30;19959;-74
2021/01/14 05:08:15;;;;;;;;;;;;;;;7.83;52.16;101118.78;4757008;30;19938;-75
2021/01/14 05:10:42;;;;;;;;;;;;;;;7.84;52.14;101123.16;4757705;30;19949;-75
2021/01/14 05:13:09;;;;;;;;;;;;;;;7.87;52.18;101125.75;4760184;30;19995;-75
2021/01/14 05:15:38;;;;;;;;;;;;;;;7.89;52.12;101139.78;4767622;30;19938;-75
2021/01/14 05:18:04;;;;;;;;;;;;;;;7.91;52.40;101121.34;4759488;30;20308;-75
2021/01/14 05:20:32;;;;;;;;;;;;;;;7.93;52.09;101137.97;4758464;30;19949;-75
2021/01/14 05:23:00;;;;;;;;;;;;;;;7.94;52.04;101124.78;4756779;30;19930;-75
2021/01/14 05:25:27;;;;;;;;;;;;;;;7.97;52.04;101132.69;4736434;30;20377;-75
2021/01/14 05:27:54;;;;;;;;;;;;;;;8.00;52.17;101138.78;4745672;30;20600;-75
2021/01/14 05:30:22;;;;;;;;;;;;;;;8.04;52.13;101144.03;4751892;30;19930;-75
2021/01/14 05:32:49;;;;;;;;;;;;;;;8.05;52.18;101142.25;4765245;30;19972;-75
2021/01/14 05:35:26;;;;;;;;;;;;;;;8.08;51.81;101161.53;4754256;30;19993;-75
2021/01/14 05:38:00;;;;;;;;;;;;;;;8.12;51.39;101157.13;4754646;30;19929;-75
2021/01/14 05:40:28;;;;;;;;;;;;;;;8.10;51.74;101156.25;4759732;30;19949;-75
2021/01/14 05:43:02;;;;;;;;;;;;;;;8.11;51.75;101163.28;4760431;30;20007;-75
2021/01/14 05:45:29;;;;;;;;;;;;;;;8.10;51.52;101166.78;4764042;30;19934;-74
2021/01/14 05:48:08;;;;;;;;;;;;;;;8.10;51.51;101169.44;4758405;30;19963;-75
2021/01/14 05:50:42;;;;;;;;;;;;;;;8.10;51.97;101172.94;4755598;30;19930;-75
2021/01/14 05:53:16;;;;;;;;;;;;;;;8.09;51.97;101186.13;4764703;30;20289;-75
2021/01/14 05:55:44;;;;;;;;;;;;;;;8.08;52.03;101187.88;4759680;30;19938;-75
2021/01/14 05:58:15;;;;;;;;;;;;;;;8.06;52.06;101187.03;4764582;30;19994;-75
2021/01/14 06:00:43;;;;;;;;;;;;;;;8.03;51.82;101194.97;4758612;30;19944;-75
2021/01/14 06:03:27;;;;;;;;;;;;;;;8.03;52.46;101204.66;4757169;30;20048;-75
2021/01/14 06:05:55;;;;;;;;;;;;;;;7.99;52.46;101203.78;4759016;30;19938;-75
2021/01/14 06:08:23;;;;;;;;;;;;;;;7.98;52.08;101210.84;4761510;30;20308;-75
2021/01/14 06:10:50;;;;;;;;;;;;;;;7.96;52.44;101217.88;4760153;30;19930;-74
2021/01/14 06:13:17;;;;;;;;;;;;;;;7.94;52.27;101222.25;4753202;30;20296;-75
2021/01/14 06:15:58;;;;;;;;;;;;;;;7.92;52.38;101226.69;4749695;30;24626;-74
2021/01/14 06:18:24;;;;;;;;;;;;;;;7.91;52.57;101229.34;4754495;30;20387;-74
2021/01/14 06:20:52;;;;;;;;;;;;;;;7.98;51.84;101241.56;4757297;30;19991;-75
2021/01/14 06:23:22;;;;;;;;;;;;;;;8.19;50.32;101244.91;4751907;30;19934;-76
2021/01/14 06:25:50;;;;;;;;;;;;;;;8.25;49.08;101243.06;4761184;30;20034;-75
2021/01/14 06:28:19;;;;;;;;;;;;;;;8.31;47.87;101253.56;4761301;30;20393;-75
2021/01/14 06:30:58;;;;;;;;;;;;;;;8.35;47.06;101256.16;4748749;30;20388;-75
2021/01/14 06:33:26;;;;;;;;;;;;;;;8.41;45.68;101258.75;4754020;30;20032;-75
2021/01/14 06:35:59;;;;;;;;;;;;;;;8.38;46.41;101266.66;4761184;30;20006;-73
2021/01/14 06:38:33;;;;;;;;;;;;;;;8.43;44.81;101272.75;4761559;30;19946;-73
2021/01/14 06:41:03;;;;;;;;;;;;;;;8.51;44.76;101280.63;4759201;30;19941;-74
2021/01/14 06:43:37;;;;;;;;;;;;;;;8.53;44.04;101279.72;4756245;30;19942;-74
2021/01/14 06:46:08;;;;;;;;;;;;;;;8.49;43.94;101283.28;4752648;30;20056;-74
2021/01/14 06:48:41;;;;;;;;;;;;;;;8.27;44.50;101286.13;4764736;30;19983;-73
2021/01/14 06:51:11;;;;;;;;;;;;;;;8.14;45.52;101289.72;4758424;30;19949;-74
2021/01/14 06:53:38;;;;;;;;;;;;;;;8.06;45.66;101291.56;4765007;30;19945;-73
2021/01/14 06:56:08;;;;;;;;;;;;;;;8.00;46.01;101296.88;4759694;30;20020;-74
2021/01/14 06:58:38;;;;;;;;;;;;;;;7.95;46.81;101305.69;4758791;30;20326;-73
2021/01/14 07:01:05;;;;;;;;;;;;;;;7.91;47.12;101303.97;4740405;30;19945;-73
2021/01/14 07:03:47;;;;;;;;;;;;;;;7.91;47.42;101313.66;4750257;30;20033;-75
2021/01/14 07:06:20;;;;;;;;;;;;;;;7.90;47.94;101315.38;4741125;30;20898;-75
2021/01/14 07:08:56;;;;;;;;;;;;;;;7.89;48.37;101316.28;4754508;30;19930;-74
2021/01/14 07:11:32;;;;;;;;;;;;;;;7.90;48.41;101323.28;4759976;30;19934;-74
2021/01/14 07:14:04;;;;;;;;;;;;;;;7.93;48.23;101325.91;4743623;30;19944;-75
2021/01/14 07:16:33;;;;;;;;;;;;;;;7.97;48.70;101326.75;4759795;30;19933;-75
2021/01/14 07:18:59;;;;;;;;;;;;;;;7.98;48.83;101328.50;4761181;30;19929;-75
2021/01/14 07:21:33;;;;;;;;;;;;;;;8.03;48.77;101328.47;4764453;30;19934;-74
2021/01/14 07:24:03;;;;;;;;;;;;;;;8.07;48.70;101333.72;4765014;30;20049;-75
2021/01/14 07:26:31;;;;;;;;;;;;;;;8.10;48.85;101323.16;4760391;30;20501;-73
2021/01/14 07:29:00;;;;;;;;;;;;;;;8.15;48.99;101333.66;4757984;30;19930;-74
2021/01/14 07:31:27;;;;;;;;;;;;;;;8.19;48.98;101339.78;4757532;30;19992;-74
2021/01/14 07:33:55;;;;;;;;;;;;;;;8.23;48.88;101341.50;4766634;30;19938;-76
2021/01/14 07:36:23;;;;;;;;;;;;;;;8.24;48.80;101351.16;4759755;30;19937;-75
2021/01/14 07:38:51;;;;;;;;;;;;;;;8.26;48.68;101341.47;4754553;30;19944;-74
2021/01/14 07:41:18;;;;;;;;;;;;;;;8.27;48.66;101349.38;4742020;30;19930;-74
2021/01/14 07:43:46;;;;;;;;;;;;;;;8.29;49.25;101350.22;4758690;30;20052;-74
2021/01/14 07:46:16;;;;;;;;;;;;;;;8.31;49.34;101353.75;4750325;30;19935;-74
2021/01/14 07:48:43;;;;;;;;;;;;;;;8.31;49.26;101348.47;4756348;30;19934;-74
2021/01/14 07:51:10;;;;;;;;;;;;;;;8.33;49.32;101356.34;4751495;30;19992;-74
2021/01/14 07:53:37;;;;;;;;;;;;;;;8.35;49.26;101361.59;4761944;30;19938;-74
2021/01/14 07:56:23;;;;;;;;;;;;;;;8.39;49.80;101364.22;4753530;30;19937;-74
2021/01/14 07:58:54;;;;;;;;;;;;;;;8.39;49.12;101365.97;4764518;30;19933;-74
2021/01/14 08:01:21;;;;;;;;;;;;;;;8.40;49.16;101371.22;4746421;30;20034;-74
2021/01/14 08:03:48;;;;;;;;;;;;;;;8.41;49.34;101375.63;4757229;30;20314;-74
2021/01/14 08:06:18;;;;;;;;;;;;;;;8.40;49.44;101387.03;4766287;30;19933;-74
2021/01/14 08:08:58;;;;;;;;;;;;;;;8.37;49.81;101394.97;4729766;30;20033;-75
2021/01/14 08:11:27;;;;;;;;;;;;;;;8.39;49.24;101394.97;4712438;30;19938;-74
2021/01/14 08:14:16;;;;;;;;;;;;;;;8.39;49.75;101409.03;4759768;30;19941;-74
2021/01/14 08:16:47;;;;;;;;;;;;;;;8.39;49.94;101413.41;4762184;30;19934;-73
2021/01/14 08:19:33;;;;;;;;;;;;;;;8.39;49.73;101423.97;4758945;30;19937;-74
2021/01/14 08:22:06;;;;;;;;;;;;;;;8.40;49.72;101429.22;4743569;30;20398;-74
2021/01/14 08:24:34;;;;;;;;;;;;;;;8.43;49.41;101438.88;4749711;30;19934;-74
2021/01/14 08:27:02;;;;;;;;;;;;;;;8.40;49.98;101437.13;4755204;30;19933;-73
2021/01/14 08:29:29;;;;;;;;;;;;;;;8.43;50.12;101446.78;4746656;30;20025;-74
2021/01/14 08:31:57;;;;;;;;;;;;;;;8.51;49.36;101452.94;4757466;30;20018;-73
2021/01/14 08:34:48;;;;;;;;;;;;;;;8.75;48.80;101465.03;4754901;30;19930;-73
2021/01/14 08:37:27;;;;;;;;;;;;;;;8.90;48.46;101464.00;4752341;30;19938;-73
2021/01/14 08:39:54;;;;;;;;;;;;;;;9.12;48.15;101466.47;4750700;30;19950;-73
2021/01/14 08:42:29;;;;;;;;;;;;;;;9.34;47.54;101479.44;4763294;30;19956;-73
2021/01/14 08:44:58;;;;;;;;;;;;;;;9.64;46.82;101491.47;4764801;30;19930;-73
2021/01/14 08:47:40;;;;;;;;;;;;;;;9.89;46.24;101492.03;4765302;30;19934;-73
2021/01/14 08:50:08;;;;;;;;;;;;;;;10.16;46.19;101489.91;4749037;30;20304;-74
2021/01/14 08:52:42;;;;;;;;;;;;;;;10.24;45.82;101490.69;4749098;30;20472;-75
2021/01/14 08:55:12;;;;;;;;;;;;;;;10.29;45.69;101495.91;4757543;30;19934;-73
2021/01/14 08:57:50;;;;;;;;;;;;;;;10.42;45.57;101500.13;4762122;30;19938;-73
2021/01/14 09:00:17;;;;;;;;;;;;;;;10.50;45.48;101488.59;4747671;30;20024;-73
2021/01/14 09:02:44;;;;;;;;;;;;;;;10.55;45.65;101506.13;4745785;30;20055;-73
2021/01/14 09:05:13;;;;;;;;;;;;;;;10.62;45.65;101505.16;4754552;30;19939;-74
2021/01/14 09:07:40;;;;;;;;;;;;;;;10.74;45.09;101500.53;4753753;30;19937;-73
2021/01/14 09:10:08;;;;;;;;;;;;;;;10.88;45.37;101505.63;4759402;30;19930;-73
2021/01/14 09:12:37;;;;;;;;;;;;;;;11.03;44.78;101500.06;4756129;30;19969;-73
2021/01/14 09:15:04;;;;;;;;;;;;;;;11.16;44.52;101500.72;4768676;30;19953;-73
2021/01/14 09:17:35;;;;;;;;;;;;;;;11.20;44.74;101499.78;4757241;30;19937;-75
2021/01/14 09:20:02;;;;;;;;;;;;;;;11.26;44.84;101501.44;4745022;30;19934;-76
2021/01/14 09:22:29;;;;;;;;;;;;;;;11.12;45.17;101505.22;4758432;30;19934;-76
2021/01/14 09:24:56;;;;;;;;;;;;;;;10.87;45.95;101501.22;4757724;30;19945;-76
2021/01/14 09:27:28;;;;;;;;;;;;;;;11.23;45.09;101510.31;4762185;30;19992;-75
2021/01/14 09:29:56;;;;;;;;;;;;;;;11.61;44.23;101498.13;4758438;30;19941;-75
2021/01/14 09:32:22;;;;;;;;;;;;;;;12.53;41.91;101502.38;4760488;30;20350;-76
2021/01/14 09:34:49;;;;;;;;;;;;;;;13.47;39.90;101495.63;4757789;30;19933;-76
2021/01/14 09:37:16;;;;;;;;;;;;;;;14.53;37.22;101497.78;4760639;30;19989;-76
2021/01/14 09:39:46;;;;;;;;;;;;;;;15.04;36.21;101490.81;4755434;30;19937;-76
2021/01/14 09:42:13;;;;;;;;;;;;;;;15.25;36.00;101499.00;4755132;30;19930;-76
2021/01/14 09:44:40;;;;;;;;;;;;;;;15.80;34.86;101485.44;4756911;30;19934;-76
2021/01/14 09:47:08;;;;;;;;;;;;;;;15.81;34.89;101495.22;4741220;30;20414;-76
2021/01/14 09:49:35;;;;;;;;;;;;;;;15.48;35.46;101499.97;4747135;30;19934;-75
2021/01/14 09:52:02;;;;;;;;;;;;;;;14.74;36.98;101514.00;4744682;30;20293;-76
2021/01/14 09:54:29;;;;;;;;;;;;;;;14.14;38.71;101518.50;4753909;30;19934;-76
2021/01/14 09:56:57;;;;;;;;;;;;;;;13.96;39.17;101539.44;4755167;30;20873;-76
2021/01/14 09:59:28;;;;;;;;;;;;;;;13.74;39.67;101547.16;4753832;30;20038;-75
2021/01/14 10:01:58;;;;;;;;;;;;;;;13.86;39.45;101551.25;4743304;30;19945;-76
2021/01/14 10:04:25;;;;;;;;;;;;;;;13.74;40.01;101560.44;4757507;30;19938;-76
2021/01/14 10:06:53;;;;;;;;;;;;;;;13.33;41.06;101565.03;4764306;30;20028;-75
2021/01/14 10:09:20;;;;;;;;;;;;;;;13.03;41.74;101581.72;4752288;30;19988;-75
2021/01/14 10:11:47;;;;;;;;;;;;;;;12.91;42.04;101582.03;4748459;30;19938;-75
2021/01/14 10:14:19;;;;;;;;;;;;;;;12.86;42.47;101565.31;4757639;30;19997;-75
2021/01/14 10:16:46;;;;;;;;;;;;;;;13.49;40.82;101562.88;4733009;30;19939;-75
2021/01/14 10:19:15;;;;;;;;;;;;;;;13.57;40.60;101574.19;4752626;30;19938;-75
2021/01/14 10:21:43;;;;;;;;;;;;;;;13.99;39.81;101559.75;4762363;30;19944;-75
2021/01/14 10:24:20;;;;;;;;;;;;;;;14.88;37.71;101549.06;4747640;30;19956;-76
2021/01/14 10:26:46;;;;;;;;;;;;;;;13.91;39.99;101578.59;4741095;30;19938;-75
2021/01/14 10:29:28;;;;;;;;;;;;;;;13.01;42.26;101586.19;4740698;30;19934;-75
2021/01/14 10:31:59;;;;;;;;;;;;;;;12.53;43.41;101587.28;4731990;30;20413;-75
2021/01/14 10:34:36;;;;;;;;;;;;;;;13.02;42.56;101587.94;4744623;30;20276;-75
2021/01/14 10:37:03;;;;;;;;;;;;;;;13.75;41.04;101579.00;4760508;30;19934;-75
2021/01/14 10:39:37;;;;;;;;;;;;;;;14.40;39.37;101569.16;4744881;30;19938;-75
2021/01/14 10:42:19;;;;;;;;;;;;;;;14.56;38.94;101572.25;4755558;30;20025;-75
2021/01/14 10:44:53;;;;;;;;;;;;;;;14.02;40.14;101580.94;4753747;30;19935;-76
2021/01/14 10:47:21;;;;;;;;;;;;;;;13.93;40.78;101587.38;4759961;30;19940;-76
2021/01/14 10:49:48;;;;;;;;;;;;;;;13.09;42.51;101592.19;4737699;30;20489;-75
2021/01/14 10:52:15;;;;;;;;;;;;;;;12.55;44.12;101604.03;4733533;30;20230;-74
2021/01/14 10:54:41;;;;;;;;;;;;;;;12.85;43.17;101603.41;4748624;30;19988;-75
2021/01/14 10:57:08;;;;;;;;;;;;;;;12.69;43.57;101606.41;4740254;30;19945;-75
2021/01/14 10:59:35;;;;;;;;;;;;;;;13.13;42.77;101611.56;4755892;30;19933;-76
2021/01/14 11:02:03;;;;;;;;;;;;;;;12.84;43.45;101614.94;4751289;30;19930;-75
2021/01/14 11:04:30;;;;;;;;;;;;;;;12.52;44.43;101622.69;4747836;30;19931;-76
2021/01/14 11:06:57;;;;;;;;;;;;;;;12.70;44.91;101629.41;4740929;30;19934;-76
2021/01/14 11:09:24;;;;;;;;;;;;;;;13.34;43.33;101618.13;4747292;30;20304;-75
2021/01/14 11:11:50;;;;;;;;;;;;;;;13.63;42.38;101627.19;4745922;30;19934;-75
2021/01/14 11:14:18;;;;;;;;;;;;;;;13.97;41.19;101622.75;4745348;30;19982;-77
2021/01/14 11:16:44;;;;;;;;;;;;;;;14.11;40.87;101625.91;4734635;30;19953;-77
2021/01/14 11:19:12;;;;;;;;;;;;;;;14.06;41.13;101630.47;4747488;30;20449;-77
2021/01/14 11:21:39;;;;;;;;;;;;;;;13.69;42.05;101626.16;4747083;30;19938;-74
2021/01/14 11:24:06;;;;;;;;;;;;;;;14.08;41.04;101636.63;4750302;30;20474;-77
2021/01/14 11:26:33;;;;;;;;;;;;;;;14.80;38.94;101641.66;4744614;30;20085;-77
2021/01/14 11:29:00;;;;;;;;;;;;;;;14.02;40.95;101644.78;4745813;30;19945;-78
2021/01/14 11:31:30;;;;;;;;;;;;;;;13.16;43.12;101650.47;4748354;30;19938;-76
2021/01/14 11:33:57;;;;;;;;;;;;;;;13.10;43.55;101665.63;4748246;30;20388;-78
2021/01/14 11:36:26;;;;;;;;;;;;;;;13.08;43.36;101654.19;4747019;30;19930;-75
2021/01/14 11:38:53;;;;;;;;;;;;;;;13.27;42.92;101646.66;4732854;30;19930;-77
2021/01/14 11:41:20;;;;;;;;;;;;;;;13.49;42.38;101648.81;4743946;30;19930;-76
2021/01/14 11:43:47;;;;;;;;;;;;;;;13.68;41.94;101653.66;4752135;30;19984;-76
2021/01/14 11:46:14;;;;;;;;;;;;;;;14.32;40.65;101647.50;4752208;30;20404;-76
2021/01/14 11:48:41;;;;;;;;;;;;;;;15.22;38.69;101651.88;4746058;30;19953;-76
2021/01/14 11:51:07;;;;;;;;;;;;;;;15.61;37.64;101650.59;4753360;30;19934;-77
2021/01/14 11:53:38;;;;;;;;;;;;;;;15.09;38.70;101651.41;4755295;30;19934;-77
2021/01/14 11:56:05;;;;;;;;;;;;;;;14.86;39.33;101651.25;4752566;30;19987;-77
2021/01/14 11:58:32;;;;;;;;;;;;;;;14.28;40.51;101647.56;4764228;30;20394;-76
2021/01/14 12:01:00;;;;;;;;;;;;;;;13.80;41.95;101649.81;4757329;30;19930;-77
2021/01/14 12:03:28;;;;;;;;;;;;;;;14.14;41.41;101654.22;4755770;30;19969;-77
2021/01/14 12:05:55;;;;;;;;;;;;;;;14.23;41.34;101660.13;4760412;30;20679;-77
2021/01/14 12:08:22;;;;;;;;;;;;;;;14.60;40.26;101658.19;4756002;30;19997;-77
2021/01/14 12:10:50;;;;;;;;;;;;;;;14.30;41.36;101658.19;4756188;30;19934;-76
2021/01/14 12:13:17;;;;;;;;;;;;;;;14.51;40.86;101664.69;4767121;30;19938;-76
2021/01/14 12:15:43;;;;;;;;;;;;;;;14.87;39.99;101669.00;4756540;30;20419;-76
2021/01/14 12:18:10;;;;;;;;;;;;;;;14.83;40.27;101670.88;4760850;30;20104;-77
2021/01/14 12:20:37;;;;;;;;;;;;;;;14.72;40.63;101667.66;4758983;30;19941;-76
2021/01/14 12:23:04;;;;;;;;;;;;;;;14.86;40.26;101673.44;4757583;30;19933;-76
2021/01/14 12:25:30;;;;;;;;;;;;;;;14.03;42.30;101681.97;4763514;30;19938;-77
2021/01/14 12:27:58;;;;;;;;;;;;;;;13.55;43.66;101679.69;4767646;30;19937;-76
2021/01/14 12:30:25;;;;;;;;;;;;;;;13.34;44.25;101691.69;4758131;30;19930;-76
2021/01/14 12:32:52;;;;;;;;;;;;;;;13.34;44.12;101686.38;4761777;30;20957;-76
2021/01/14 12:35:19;;;;;;;;;;;;;;;14.43;41.98;101688.88;4756395;30;20317;-76
2021/01/14 12:37:48;;;;;;;;;;;;;;;14.84;40.46;101675.28;4757952;30;19941;-76
2021/01/14 12:40:18;;;;;;;;;;;;;;;14.55;41.47;101682.31;4756184;30;19930;-76
2021/01/14 12:42:46;;;;;;;;;;;;;;;14.80;41.14;101681.63;4768903;30;19937;-77
2021/01/14 12:45:14;;;;;;;;;;;;;;;14.33;42.22;101686.50;4749880;30;20061;-76
2021/01/14 12:47:41;;;;;;;;;;;;;;;14.09;42.93;101688.91;4761302;30;20116;-76
2021/01/14 12:50:08;;;;;;;;;;;;;;;13.83;43.51;101689.59;4753878;30;19933;-77
2021/01/14 12:52:35;;;;;;;;;;;;;;;13.73;43.82;101691.66;4757577;30;19987;-77
2021/01/14 12:55:02;;;;;;;;;;;;;;;13.64;43.94;101699.84;4758075;30;20375;-76